sensor_id;sensor_type;location;lat;lon;timestamp;temperature;humidity
55870;DHT22;41790;50.940;4.560;2024-02-26T00:01:32;10.70;70.40
55870;DHT22;41790;50.940;4.560;2024-02-26T00:03:58;10.70;70.40
55870;DHT22;41790;50.940;4.560;2024-02-26T00:06:25;10.70;70.40
55870;DHT22;41790;50.940;4.560;2024-02-26T00:08:51;10.70;70.50
55870;DHT22;41790;50.940;4.560;2024-02-26T00:11:16;10.70;70.50
55870;DHT22;41790;50.940;4.560;2024-02-26T00:13:42;10.70;70.40
55870;DHT22;41790;50.940;4.560;2024-02-26T00:16:08;10.70;70.50
55870;DHT22;41790;50.940;4.560;2024-02-26T00:18:33;10.70;70.50
55870;DHT22;41790;50.940;4.560;2024-02-26T00:20:59;10.70;70.60
55870;DHT22;41790;50.940;4.560;2024-02-26T00:23:26;10.70;70.60
55870;DHT22;41790;50.940;4.560;2024-02-26T00:25:53;10.70;70.70
55870;DHT22;41790;50.940;4.560;2024-02-26T00:28:18;10.70;70.70
55870;DHT22;41790;50.940;4.560;2024-02-26T00:30:45;10.70;70.70
55870;DHT22;41790;50.940;4.560;2024-02-26T00:33:11;10.70;70.70
55870;DHT22;41790;50.940;4.560;2024-02-26T00:35:37;10.70;70.80
55870;DHT22;41790;50.940;4.560;2024-02-26T00:38:03;10.70;70.80
55870;DHT22;41790;50.940;4.560;2024-02-26T00:40:29;10.70;70.80
55870;DHT22;41790;50.940;4.560;2024-02-26T00:42:55;10.70;70.90
55870;DHT22;41790;50.940;4.560;2024-02-26T00:45:21;10.70;71.00
55870;DHT22;41790;50.940;4.560;2024-02-26T00:47:47;10.70;71.00
55870;DHT22;41790;50.940;4.560;2024-02-26T00:50:14;10.70;70.90
55870;DHT22;41790;50.940;4.560;2024-02-26T00:52:40;10.70;70.90
55870;DHT22;41790;50.940;4.560;2024-02-26T00:55:06;10.70;71.00
55870;DHT22;41790;50.940;4.560;2024-02-26T00:57:33;10.70;71.10
55870;DHT22;41790;50.940;4.560;2024-02-26T00:59:58;10.70;71.10
55870;DHT22;41790;50.940;4.560;2024-02-26T01:02:24;10.70;71.10
55870;DHT22;41790;50.940;4.560;2024-02-26T01:04:50;10.70;71.20
55870;DHT22;41790;50.940;4.560;2024-02-26T01:07:16;10.70;71.20
55870;DHT22;41790;50.940;4.560;2024-02-26T01:09:42;10.70;71.20
55870;DHT22;41790;50.940;4.560;2024-02-26T01:12:08;10.70;71.20
55870;DHT22;41790;50.940;4.560;2024-02-26T01:14:34;10.70;71.20
55870;DHT22;41790;50.940;4.560;2024-02-26T01:17:00;10.70;71.30
55870;DHT22;41790;50.940;4.560;2024-02-26T01:19:26;10.70;71.30
55870;DHT22;41790;50.940;4.560;2024-02-26T01:21:51;10.70;71.30
55870;DHT22;41790;50.940;4.560;2024-02-26T01:24:17;10.70;71.40
55870;DHT22;41790;50.940;4.560;2024-02-26T01:26:43;10.70;71.40
55870;DHT22;41790;50.940;4.560;2024-02-26T01:29:09;10.60;71.30
55870;DHT22;41790;50.940;4.560;2024-02-26T01:31:37;10.60;71.40
55870;DHT22;41790;50.940;4.560;2024-02-26T01:34:03;10.60;71.50
55870;DHT22;41790;50.940;4.560;2024-02-26T01:36:28;10.60;71.50
55870;DHT22;41790;50.940;4.560;2024-02-26T01:38:54;10.60;71.50
55870;DHT22;41790;50.940;4.560;2024-02-26T01:41:20;10.60;71.60
55870;DHT22;41790;50.940;4.560;2024-02-26T01:43:46;10.60;71.50
55870;DHT22;41790;50.940;4.560;2024-02-26T01:46:14;10.60;72.40
55870;DHT22;41790;50.940;4.560;2024-02-26T01:48:44;10.60;71.60
55870;DHT22;41790;50.940;4.560;2024-02-26T01:51:12;10.60;71.60
55870;DHT22;41790;50.940;4.560;2024-02-26T01:53:39;10.60;71.60
55870;DHT22;41790;50.940;4.560;2024-02-26T01:56:06;10.60;71.60
55870;DHT22;41790;50.940;4.560;2024-02-26T01:58:32;10.60;71.60
55870;DHT22;41790;50.940;4.560;2024-02-26T02:00:59;10.60;71.70
55870;DHT22;41790;50.940;4.560;2024-02-26T02:03:26;10.60;71.80
55870;DHT22;41790;50.940;4.560;2024-02-26T02:05:53;10.60;71.80
55870;DHT22;41790;50.940;4.560;2024-02-26T02:08:19;10.60;71.90
55870;DHT22;41790;50.940;4.560;2024-02-26T02:10:45;10.50;71.90
55870;DHT22;41790;50.940;4.560;2024-02-26T02:13:13;10.60;72.00
55870;DHT22;41790;50.940;4.560;2024-02-26T02:15:39;10.60;71.90
55870;DHT22;41790;50.940;4.560;2024-02-26T02:18:05;10.60;72.00
55870;DHT22;41790;50.940;4.560;2024-02-26T02:20:32;10.60;72.00
55870;DHT22;41790;50.940;4.560;2024-02-26T02:22:59;10.60;72.00
55870;DHT22;41790;50.940;4.560;2024-02-26T02:25:25;10.60;72.10
55870;DHT22;41790;50.940;4.560;2024-02-26T02:27:53;10.60;72.10
55870;DHT22;41790;50.940;4.560;2024-02-26T02:30:20;10.50;72.00
55870;DHT22;41790;50.940;4.560;2024-02-26T02:32:46;10.50;72.10
55870;DHT22;41790;50.940;4.560;2024-02-26T02:35:12;10.50;72.20
55870;DHT22;41790;50.940;4.560;2024-02-26T02:37:38;10.50;72.20
55870;DHT22;41790;50.940;4.560;2024-02-26T02:40:04;10.50;72.30
55870;DHT22;41790;50.940;4.560;2024-02-26T02:42:30;10.50;72.20
55870;DHT22;41790;50.940;4.560;2024-02-26T02:44:56;10.50;72.20
55870;DHT22;41790;50.940;4.560;2024-02-26T02:47:22;10.50;72.30
55870;DHT22;41790;50.940;4.560;2024-02-26T02:49:48;10.50;72.40
55870;DHT22;41790;50.940;4.560;2024-02-26T02:52:13;10.50;72.40
55870;DHT22;41790;50.940;4.560;2024-02-26T02:54:39;10.50;72.30
55870;DHT22;41790;50.940;4.560;2024-02-26T02:57:07;10.50;72.40
55870;DHT22;41790;50.940;4.560;2024-02-26T02:59:33;10.50;72.40
55870;DHT22;41790;50.940;4.560;2024-02-26T03:01:59;10.50;72.50
55870;DHT22;41790;50.940;4.560;2024-02-26T03:04:25;10.50;72.50
55870;DHT22;41790;50.940;4.560;2024-02-26T03:06:50;10.50;72.40
55870;DHT22;41790;50.940;4.560;2024-02-26T03:09:16;10.50;72.50
55870;DHT22;41790;50.940;4.560;2024-02-26T03:11:42;10.50;72.60
55870;DHT22;41790;50.940;4.560;2024-02-26T03:14:07;10.50;72.60
55870;DHT22;41790;50.940;4.560;2024-02-26T03:16:35;10.40;72.50
55870;DHT22;41790;50.940;4.560;2024-02-26T03:19:00;10.50;72.50
55870;DHT22;41790;50.940;4.560;2024-02-26T03:21:27;10.50;72.50
55870;DHT22;41790;50.940;4.560;2024-02-26T03:23:53;10.50;72.60
55870;DHT22;41790;50.940;4.560;2024-02-26T03:26:19;10.50;72.70
55870;DHT22;41790;50.940;4.560;2024-02-26T03:28:44;10.50;72.70
55870;DHT22;41790;50.940;4.560;2024-02-26T03:31:10;10.40;72.60
55870;DHT22;41790;50.940;4.560;2024-02-26T03:33:36;10.40;72.60
55870;DHT22;41790;50.940;4.560;2024-02-26T03:36:02;10.40;72.60
55870;DHT22;41790;50.940;4.560;2024-02-26T03:38:29;10.40;72.70
55870;DHT22;41790;50.940;4.560;2024-02-26T03:40:55;10.40;72.70
55870;DHT22;41790;50.940;4.560;2024-02-26T03:43:21;10.40;72.70
55870;DHT22;41790;50.940;4.560;2024-02-26T03:45:46;10.40;72.70
55870;DHT22;41790;50.940;4.560;2024-02-26T03:48:12;10.40;72.70
55870;DHT22;41790;50.940;4.560;2024-02-26T03:50:38;10.40;72.70
55870;DHT22;41790;50.940;4.560;2024-02-26T03:53:03;10.40;72.90
55870;DHT22;41790;50.940;4.560;2024-02-26T03:55:29;10.40;72.80
55870;DHT22;41790;50.940;4.560;2024-02-26T03:57:55;10.40;72.90
55870;DHT22;41790;50.940;4.560;2024-02-26T04:00:21;10.40;72.90
55870;DHT22;41790;50.940;4.560;2024-02-26T04:02:47;10.40;72.90
55870;DHT22;41790;50.940;4.560;2024-02-26T04:05:14;10.40;73.70
55870;DHT22;41790;50.940;4.560;2024-02-26T04:07:42;10.40;72.90
55870;DHT22;41790;50.940;4.560;2024-02-26T04:10:09;10.40;73.00
55870;DHT22;41790;50.940;4.560;2024-02-26T04:12:37;10.40;73.00
55870;DHT22;41790;50.940;4.560;2024-02-26T04:15:03;10.40;72.90
55870;DHT22;41790;50.940;4.560;2024-02-26T04:17:30;10.40;72.90
55870;DHT22;41790;50.940;4.560;2024-02-26T04:19:55;10.40;73.00
55870;DHT22;41790;50.940;4.560;2024-02-26T04:22:21;10.40;73.00
55870;DHT22;41790;50.940;4.560;2024-02-26T04:24:47;10.40;73.00
55870;DHT22;41790;50.940;4.560;2024-02-26T04:27:12;10.40;73.00
55870;DHT22;41790;50.940;4.560;2024-02-26T04:29:38;10.40;73.10
55870;DHT22;41790;50.940;4.560;2024-02-26T04:32:04;10.40;73.00
55870;DHT22;41790;50.940;4.560;2024-02-26T04:34:30;10.40;73.20
55870;DHT22;41790;50.940;4.560;2024-02-26T04:36:55;10.40;73.20
55870;DHT22;41790;50.940;4.560;2024-02-26T04:39:21;10.40;73.10
55870;DHT22;41790;50.940;4.560;2024-02-26T04:41:47;10.40;73.10
55870;DHT22;41790;50.940;4.560;2024-02-26T04:44:12;10.40;73.20
55870;DHT22;41790;50.940;4.560;2024-02-26T04:46:38;10.30;73.20
55870;DHT22;41790;50.940;4.560;2024-02-26T04:49:04;10.30;73.30
55870;DHT22;41790;50.940;4.560;2024-02-26T04:51:29;10.40;73.30
55870;DHT22;41790;50.940;4.560;2024-02-26T04:53:55;10.40;73.30
55870;DHT22;41790;50.940;4.560;2024-02-26T04:56:21;10.40;73.20
55870;DHT22;41790;50.940;4.560;2024-02-26T04:58:47;10.30;73.30
55870;DHT22;41790;50.940;4.560;2024-02-26T05:01:13;10.30;73.30
55870;DHT22;41790;50.940;4.560;2024-02-26T05:03:39;10.30;73.40
55870;DHT22;41790;50.940;4.560;2024-02-26T05:06:05;10.30;73.40
55870;DHT22;41790;50.940;4.560;2024-02-26T05:08:31;10.30;73.40
55870;DHT22;41790;50.940;4.560;2024-02-26T05:10:59;10.30;73.40
55870;DHT22;41790;50.940;4.560;2024-02-26T05:13:25;10.30;73.40
55870;DHT22;41790;50.940;4.560;2024-02-26T05:15:51;10.30;73.50
55870;DHT22;41790;50.940;4.560;2024-02-26T05:18:18;10.30;73.50
55870;DHT22;41790;50.940;4.560;2024-02-26T05:20:43;10.30;74.30
55870;DHT22;41790;50.940;4.560;2024-02-26T05:23:09;10.30;73.60
55870;DHT22;41790;50.940;4.560;2024-02-26T05:25:35;10.30;73.60
55870;DHT22;41790;50.940;4.560;2024-02-26T05:28:01;10.30;73.60
55870;DHT22;41790;50.940;4.560;2024-02-26T05:30:27;10.30;73.60
55870;DHT22;41790;50.940;4.560;2024-02-26T05:32:53;10.30;73.60
55870;DHT22;41790;50.940;4.560;2024-02-26T05:35:19;10.30;73.60
55870;DHT22;41790;50.940;4.560;2024-02-26T05:37:45;10.30;73.60
55870;DHT22;41790;50.940;4.560;2024-02-26T05:40:11;10.30;73.60
55870;DHT22;41790;50.940;4.560;2024-02-26T05:42:37;10.30;73.50
55870;DHT22;41790;50.940;4.560;2024-02-26T05:45:03;10.30;73.60
55870;DHT22;41790;50.940;4.560;2024-02-26T05:47:34;10.30;73.60
55870;DHT22;41790;50.940;4.560;2024-02-26T05:50:01;10.30;73.50
55870;DHT22;41790;50.940;4.560;2024-02-26T05:52:27;10.30;73.60
55870;DHT22;41790;50.940;4.560;2024-02-26T05:54:54;10.30;73.60
55870;DHT22;41790;50.940;4.560;2024-02-26T05:57:20;10.30;73.70
55870;DHT22;41790;50.940;4.560;2024-02-26T05:59:46;10.30;73.60
55870;DHT22;41790;50.940;4.560;2024-02-26T06:02:12;10.30;73.60
55870;DHT22;41790;50.940;4.560;2024-02-26T06:04:37;10.30;73.60
55870;DHT22;41790;50.940;4.560;2024-02-26T06:07:03;10.30;73.70
55870;DHT22;41790;50.940;4.560;2024-02-26T06:09:29;10.30;73.70
55870;DHT22;41790;50.940;4.560;2024-02-26T06:11:54;10.30;73.70
55870;DHT22;41790;50.940;4.560;2024-02-26T06:14:20;10.30;73.80
55870;DHT22;41790;50.940;4.560;2024-02-26T06:16:46;10.30;73.80
55870;DHT22;41790;50.940;4.560;2024-02-26T06:19:12;10.30;73.90
55870;DHT22;41790;50.940;4.560;2024-02-26T06:21:38;10.20;73.90
55870;DHT22;41790;50.940;4.560;2024-02-26T06:24:03;10.30;73.80
55870;DHT22;41790;50.940;4.560;2024-02-26T06:26:29;10.30;74.10
55870;DHT22;41790;50.940;4.560;2024-02-26T06:28:55;10.20;74.80
55870;DHT22;41790;50.940;4.560;2024-02-26T06:31:24;10.10;75.10
55870;DHT22;41790;50.940;4.560;2024-02-26T06:33:53;10.10;75.50
55870;DHT22;41790;50.940;4.560;2024-02-26T06:36:19;10.00;75.80
55870;DHT22;41790;50.940;4.560;2024-02-26T06:38:44;10.00;75.90
55870;DHT22;41790;50.940;4.560;2024-02-26T06:41:10;10.00;75.90
55870;DHT22;41790;50.940;4.560;2024-02-26T06:43:37;9.90;76.40
55870;DHT22;41790;50.940;4.560;2024-02-26T06:46:02;9.90;76.30
55870;DHT22;41790;50.940;4.560;2024-02-26T06:48:28;10.00;76.00
55870;DHT22;41790;50.940;4.560;2024-02-26T06:50:54;10.10;75.50
55870;DHT22;41790;50.940;4.560;2024-02-26T06:53:20;10.10;75.10
55870;DHT22;41790;50.940;4.560;2024-02-26T06:55:45;10.20;75.20
55870;DHT22;41790;50.940;4.560;2024-02-26T06:58:11;10.20;75.00
55870;DHT22;41790;50.940;4.560;2024-02-26T07:00:37;10.20;74.90
55870;DHT22;41790;50.940;4.560;2024-02-26T07:03:02;10.10;75.00
55870;DHT22;41790;50.940;4.560;2024-02-26T07:05:29;10.10;75.00
55870;DHT22;41790;50.940;4.560;2024-02-26T07:07:54;10.10;75.00
55870;DHT22;41790;50.940;4.560;2024-02-26T07:10:20;10.10;75.00
55870;DHT22;41790;50.940;4.560;2024-02-26T07:12:46;10.10;75.10
55870;DHT22;41790;50.940;4.560;2024-02-26T07:15:12;10.10;75.10
55870;DHT22;41790;50.940;4.560;2024-02-26T07:17:38;10.10;75.10
55870;DHT22;41790;50.940;4.560;2024-02-26T07:20:08;10.10;75.20
55870;DHT22;41790;50.940;4.560;2024-02-26T07:22:34;10.10;75.20
55870;DHT22;41790;50.940;4.560;2024-02-26T07:24:59;10.10;75.20
55870;DHT22;41790;50.940;4.560;2024-02-26T07:27:25;10.10;75.30
55870;DHT22;41790;50.940;4.560;2024-02-26T07:29:51;10.10;75.20
55870;DHT22;41790;50.940;4.560;2024-02-26T07:32:16;10.10;75.10
55870;DHT22;41790;50.940;4.560;2024-02-26T07:34:42;10.10;75.20
55870;DHT22;41790;50.940;4.560;2024-02-26T07:37:10;10.10;75.20
55870;DHT22;41790;50.940;4.560;2024-02-26T07:39:36;10.10;75.10
55870;DHT22;41790;50.940;4.560;2024-02-26T07:42:02;10.10;75.10
55870;DHT22;41790;50.940;4.560;2024-02-26T07:44:28;10.10;75.10
55870;DHT22;41790;50.940;4.560;2024-02-26T07:46:54;10.10;75.00
55870;DHT22;41790;50.940;4.560;2024-02-26T07:49:20;10.10;75.00
55870;DHT22;41790;50.940;4.560;2024-02-26T07:51:46;10.10;75.00
55870;DHT22;41790;50.940;4.560;2024-02-26T07:54:11;10.10;75.00
55870;DHT22;41790;50.940;4.560;2024-02-26T07:56:37;10.10;75.00
55870;DHT22;41790;50.940;4.560;2024-02-26T07:59:03;10.10;75.60
55870;DHT22;41790;50.940;4.560;2024-02-26T08:01:29;10.10;74.80
55870;DHT22;41790;50.940;4.560;2024-02-26T08:03:54;10.20;74.90
55870;DHT22;41790;50.940;4.560;2024-02-26T08:06:21;10.10;74.80
55870;DHT22;41790;50.940;4.560;2024-02-26T08:08:46;10.10;74.80
55870;DHT22;41790;50.940;4.560;2024-02-26T08:11:14;10.10;74.80
55870;DHT22;41790;50.940;4.560;2024-02-26T08:13:41;10.10;74.80
55870;DHT22;41790;50.940;4.560;2024-02-26T08:16:06;10.20;74.70
55870;DHT22;41790;50.940;4.560;2024-02-26T08:18:32;10.20;74.60
55870;DHT22;41790;50.940;4.560;2024-02-26T08:20:58;10.20;74.70
55870;DHT22;41790;50.940;4.560;2024-02-26T08:23:24;10.20;74.70
55870;DHT22;41790;50.940;4.560;2024-02-26T08:25:50;10.20;74.70
55870;DHT22;41790;50.940;4.560;2024-02-26T08:28:16;10.20;74.70
55870;DHT22;41790;50.940;4.560;2024-02-26T08:30:43;10.20;74.70
55870;DHT22;41790;50.940;4.560;2024-02-26T08:33:09;10.20;74.60
55870;DHT22;41790;50.940;4.560;2024-02-26T08:35:36;10.20;74.50
55870;DHT22;41790;50.940;4.560;2024-02-26T08:38:01;10.20;74.50
55870;DHT22;41790;50.940;4.560;2024-02-26T08:40:28;10.20;74.50
55870;DHT22;41790;50.940;4.560;2024-02-26T08:42:54;10.20;74.50
55870;DHT22;41790;50.940;4.560;2024-02-26T08:45:21;10.20;74.50
55870;DHT22;41790;50.940;4.560;2024-02-26T08:47:47;10.20;74.50
55870;DHT22;41790;50.940;4.560;2024-02-26T08:50:13;10.20;74.50
55870;DHT22;41790;50.940;4.560;2024-02-26T08:52:39;10.20;74.80
55870;DHT22;41790;50.940;4.560;2024-02-26T08:55:06;10.20;74.50
55870;DHT22;41790;50.940;4.560;2024-02-26T08:57:34;10.20;74.50
55870;DHT22;41790;50.940;4.560;2024-02-26T09:00:00;10.20;74.50
55870;DHT22;41790;50.940;4.560;2024-02-26T09:02:26;10.20;74.40
55870;DHT22;41790;50.940;4.560;2024-02-26T09:04:52;10.20;74.50
55870;DHT22;41790;50.940;4.560;2024-02-26T09:07:21;10.20;74.40
55870;DHT22;41790;50.940;4.560;2024-02-26T09:09:46;10.20;74.40
55870;DHT22;41790;50.940;4.560;2024-02-26T09:12:12;10.20;74.40
55870;DHT22;41790;50.940;4.560;2024-02-26T09:14:38;10.20;74.40
55870;DHT22;41790;50.940;4.560;2024-02-26T09:17:04;10.20;74.40
55870;DHT22;41790;50.940;4.560;2024-02-26T09:19:31;10.20;74.40
55870;DHT22;41790;50.940;4.560;2024-02-26T09:21:57;10.20;74.30
55870;DHT22;41790;50.940;4.560;2024-02-26T09:24:24;10.20;74.30
55870;DHT22;41790;50.940;4.560;2024-02-26T09:26:50;10.30;74.30
55870;DHT22;41790;50.940;4.560;2024-02-26T09:29:16;10.30;74.40
55870;DHT22;41790;50.940;4.560;2024-02-26T09:31:41;10.30;74.40
55870;DHT22;41790;50.940;4.560;2024-02-26T09:34:07;10.20;74.40
55870;DHT22;41790;50.940;4.560;2024-02-26T09:36:36;10.30;74.40
55870;DHT22;41790;50.940;4.560;2024-02-26T09:39:03;10.30;74.40
55870;DHT22;41790;50.940;4.560;2024-02-26T09:41:30;10.30;74.30
55870;DHT22;41790;50.940;4.560;2024-02-26T09:43:59;10.30;74.30
55870;DHT22;41790;50.940;4.560;2024-02-26T09:46:28;10.30;74.30
55870;DHT22;41790;50.940;4.560;2024-02-26T09:48:54;10.30;74.30
55870;DHT22;41790;50.940;4.560;2024-02-26T09:51:23;10.30;74.20
55870;DHT22;41790;50.940;4.560;2024-02-26T09:53:52;10.30;74.10
55870;DHT22;41790;50.940;4.560;2024-02-26T09:56:19;10.30;74.20
55870;DHT22;41790;50.940;4.560;2024-02-26T09:58:45;10.30;74.20
55870;DHT22;41790;50.940;4.560;2024-02-26T10:01:17;10.30;74.20
55870;DHT22;41790;50.940;4.560;2024-02-26T10:03:44;10.30;74.20
55870;DHT22;41790;50.940;4.560;2024-02-26T10:06:12;10.30;74.20
55870;DHT22;41790;50.940;4.560;2024-02-26T10:08:38;10.30;74.20
55870;DHT22;41790;50.940;4.560;2024-02-26T10:11:06;10.30;74.20
55870;DHT22;41790;50.940;4.560;2024-02-26T10:13:32;10.30;74.20
55870;DHT22;41790;50.940;4.560;2024-02-26T10:15:58;10.30;74.20
55870;DHT22;41790;50.940;4.560;2024-02-26T10:18:24;10.30;74.20
55870;DHT22;41790;50.940;4.560;2024-02-26T10:21:08;10.30;74.20
55870;DHT22;41790;50.940;4.560;2024-02-26T10:23:33;10.30;74.30
55870;DHT22;41790;50.940;4.560;2024-02-26T10:25:59;10.30;74.30
55870;DHT22;41790;50.940;4.560;2024-02-26T10:28:25;10.30;74.30
55870;DHT22;41790;50.940;4.560;2024-02-26T10:30:52;10.30;74.30
55870;DHT22;41790;50.940;4.560;2024-02-26T10:33:18;10.30;74.10
55870;DHT22;41790;50.940;4.560;2024-02-26T10:35:47;10.30;74.20
55870;DHT22;41790;50.940;4.560;2024-02-26T10:38:13;10.30;74.10
55870;DHT22;41790;50.940;4.560;2024-02-26T10:40:39;10.30;74.10
55870;DHT22;41790;50.940;4.560;2024-02-26T10:43:04;10.30;74.10
55870;DHT22;41790;50.940;4.560;2024-02-26T10:45:32;10.30;74.20
55870;DHT22;41790;50.940;4.560;2024-02-26T10:47:57;10.40;74.20
55870;DHT22;41790;50.940;4.560;2024-02-26T10:50:24;10.40;74.20
55870;DHT22;41790;50.940;4.560;2024-02-26T10:52:50;10.30;74.10
55870;DHT22;41790;50.940;4.560;2024-02-26T10:55:17;10.30;74.10
55870;DHT22;41790;50.940;4.560;2024-02-26T10:57:44;10.30;74.10
55870;DHT22;41790;50.940;4.560;2024-02-26T11:00:14;10.40;74.80
55870;DHT22;41790;50.940;4.560;2024-02-26T11:02:41;10.40;74.00
55870;DHT22;41790;50.940;4.560;2024-02-26T11:05:07;10.30;74.00
55870;DHT22;41790;50.940;4.560;2024-02-26T11:07:37;10.40;74.00
55870;DHT22;41790;50.940;4.560;2024-02-26T11:10:04;10.40;74.00
55870;DHT22;41790;50.940;4.560;2024-02-26T11:12:32;10.40;73.90
55870;DHT22;41790;50.940;4.560;2024-02-26T11:15:01;10.40;73.90
55870;DHT22;41790;50.940;4.560;2024-02-26T11:17:28;10.40;73.90
55870;DHT22;41790;50.940;4.560;2024-02-26T11:19:58;10.40;73.80
55870;DHT22;41790;50.940;4.560;2024-02-26T11:22:25;10.40;73.80
55870;DHT22;41790;50.940;4.560;2024-02-26T11:24:55;10.40;73.90
55870;DHT22;41790;50.940;4.560;2024-02-26T11:27:50;10.40;73.90
55870;DHT22;41790;50.940;4.560;2024-02-26T11:30:18;10.40;73.90
55870;DHT22;41790;50.940;4.560;2024-02-26T11:32:48;10.40;73.90
55870;DHT22;41790;50.940;4.560;2024-02-26T11:35:14;10.40;73.90
55870;DHT22;41790;50.940;4.560;2024-02-26T11:37:52;10.40;73.80
55870;DHT22;41790;50.940;4.560;2024-02-26T11:40:18;10.40;73.80
55870;DHT22;41790;50.940;4.560;2024-02-26T11:42:44;10.40;73.80
55870;DHT22;41790;50.940;4.560;2024-02-26T11:51:01;10.40;73.70
55870;DHT22;41790;50.940;4.560;2024-02-26T11:53:31;10.40;73.90
55870;DHT22;41790;50.940;4.560;2024-02-26T11:58:58;10.40;73.90
55870;DHT22;41790;50.940;4.560;2024-02-26T12:01:39;10.40;73.90
55870;DHT22;41790;50.940;4.560;2024-02-26T12:06:45;10.40;73.90
55870;DHT22;41790;50.940;4.560;2024-02-26T12:09:11;10.30;73.90
55870;DHT22;41790;50.940;4.560;2024-02-26T12:11:39;10.40;74.00
55870;DHT22;41790;50.940;4.560;2024-02-26T12:14:07;10.40;74.00
55870;DHT22;41790;50.940;4.560;2024-02-26T12:16:39;10.40;74.00
55870;DHT22;41790;50.940;4.560;2024-02-26T12:19:07;10.40;74.10
55870;DHT22;41790;50.940;4.560;2024-02-26T12:21:34;10.30;74.00
55870;DHT22;41790;50.940;4.560;2024-02-26T12:24:14;10.40;74.00
55870;DHT22;41790;50.940;4.560;2024-02-26T12:26:43;10.30;74.00
55870;DHT22;41790;50.940;4.560;2024-02-26T12:29:09;10.40;74.10
55870;DHT22;41790;50.940;4.560;2024-02-26T12:31:36;10.40;74.10
55870;DHT22;41790;50.940;4.560;2024-02-26T12:34:04;10.40;74.00
55870;DHT22;41790;50.940;4.560;2024-02-26T12:36:30;10.40;74.00
55870;DHT22;41790;50.940;4.560;2024-02-26T12:38:56;10.40;74.00
55870;DHT22;41790;50.940;4.560;2024-02-26T12:41:22;10.40;73.90
55870;DHT22;41790;50.940;4.560;2024-02-26T12:43:49;10.40;73.90
55870;DHT22;41790;50.940;4.560;2024-02-26T12:46:15;10.40;73.90
55870;DHT22;41790;50.940;4.560;2024-02-26T12:48:46;10.40;73.90
55870;DHT22;41790;50.940;4.560;2024-02-26T12:51:12;10.40;73.90
55870;DHT22;41790;50.940;4.560;2024-02-26T12:53:39;10.40;73.80
55870;DHT22;41790;50.940;4.560;2024-02-26T12:56:07;10.40;73.80
55870;DHT22;41790;50.940;4.560;2024-02-26T12:58:35;10.40;73.80
55870;DHT22;41790;50.940;4.560;2024-02-26T13:01:03;10.40;73.80
55870;DHT22;41790;50.940;4.560;2024-02-26T13:03:30;10.40;73.80
55870;DHT22;41790;50.940;4.560;2024-02-26T13:05:56;10.50;73.80
55870;DHT22;41790;50.940;4.560;2024-02-26T13:08:22;10.40;73.70
55870;DHT22;41790;50.940;4.560;2024-02-26T13:10:49;10.40;73.70
55870;DHT22;41790;50.940;4.560;2024-02-26T13:13:17;10.40;73.70
55870;DHT22;41790;50.940;4.560;2024-02-26T13:15:44;10.40;73.80
55870;DHT22;41790;50.940;4.560;2024-02-26T13:18:18;10.40;73.80
55870;DHT22;41790;50.940;4.560;2024-02-26T13:20:44;10.40;73.80
55870;DHT22;41790;50.940;4.560;2024-02-26T13:23:13;10.40;73.80
55870;DHT22;41790;50.940;4.560;2024-02-26T13:25:39;10.40;73.70
55870;DHT22;41790;50.940;4.560;2024-02-26T13:28:09;10.40;73.70
55870;DHT22;41790;50.940;4.560;2024-02-26T13:30:38;10.40;73.70
55870;DHT22;41790;50.940;4.560;2024-02-26T13:33:11;10.40;73.80
55870;DHT22;41790;50.940;4.560;2024-02-26T13:35:38;10.40;73.70
55870;DHT22;41790;50.940;4.560;2024-02-26T13:38:05;10.40;73.70
55870;DHT22;41790;50.940;4.560;2024-02-26T13:40:32;10.40;73.70
55870;DHT22;41790;50.940;4.560;2024-02-26T13:42:57;10.40;73.70
55870;DHT22;41790;50.940;4.560;2024-02-26T13:45:23;10.40;73.70
55870;DHT22;41790;50.940;4.560;2024-02-26T13:47:49;10.40;73.70
55870;DHT22;41790;50.940;4.560;2024-02-26T13:50:16;10.40;73.80
55870;DHT22;41790;50.940;4.560;2024-02-26T13:52:49;10.40;73.80
55870;DHT22;41790;50.940;4.560;2024-02-26T13:55:18;10.40;73.70
55870;DHT22;41790;50.940;4.560;2024-02-26T13:57:45;10.40;73.70
55870;DHT22;41790;50.940;4.560;2024-02-26T14:00:11;10.40;73.70
55870;DHT22;41790;50.940;4.560;2024-02-26T14:02:37;10.40;73.70
55870;DHT22;41790;50.940;4.560;2024-02-26T14:05:03;10.40;73.90
55870;DHT22;41790;50.940;4.560;2024-02-26T14:07:30;10.40;73.90
55870;DHT22;41790;50.940;4.560;2024-02-26T14:09:58;10.40;73.90
55870;DHT22;41790;50.940;4.560;2024-02-26T14:12:23;10.40;73.90
55870;DHT22;41790;50.940;4.560;2024-02-26T14:14:50;10.40;73.90
55870;DHT22;41790;50.940;4.560;2024-02-26T14:17:18;10.40;73.80
55870;DHT22;41790;50.940;4.560;2024-02-26T14:19:44;10.40;73.80
55870;DHT22;41790;50.940;4.560;2024-02-26T14:22:14;10.40;73.90
55870;DHT22;41790;50.940;4.560;2024-02-26T14:24:41;10.40;73.80
55870;DHT22;41790;50.940;4.560;2024-02-26T14:27:11;10.40;73.90
55870;DHT22;41790;50.940;4.560;2024-02-26T14:29:43;10.40;73.90
55870;DHT22;41790;50.940;4.560;2024-02-26T14:32:12;10.40;73.90
55870;DHT22;41790;50.940;4.560;2024-02-26T14:34:38;10.40;74.00
55870;DHT22;41790;50.940;4.560;2024-02-26T14:37:04;10.40;73.90
55870;DHT22;41790;50.940;4.560;2024-02-26T14:39:33;10.40;73.90
55870;DHT22;41790;50.940;4.560;2024-02-26T14:42:00;10.40;74.00
55870;DHT22;41790;50.940;4.560;2024-02-26T14:44:26;10.40;74.00
55870;DHT22;41790;50.940;4.560;2024-02-26T14:46:52;10.40;74.00
55870;DHT22;41790;50.940;4.560;2024-02-26T14:49:17;10.40;74.00
55870;DHT22;41790;50.940;4.560;2024-02-26T14:51:44;10.40;74.00
55870;DHT22;41790;50.940;4.560;2024-02-26T14:54:11;10.40;74.00
55870;DHT22;41790;50.940;4.560;2024-02-26T14:56:37;10.40;74.00
55870;DHT22;41790;50.940;4.560;2024-02-26T14:59:03;10.40;74.00
55870;DHT22;41790;50.940;4.560;2024-02-26T15:01:28;10.40;74.10
55870;DHT22;41790;50.940;4.560;2024-02-26T15:03:54;10.40;74.10
55870;DHT22;41790;50.940;4.560;2024-02-26T15:06:20;10.40;74.00
55870;DHT22;41790;50.940;4.560;2024-02-26T15:08:46;10.40;74.10
55870;DHT22;41790;50.940;4.560;2024-02-26T15:11:12;10.40;74.00
55870;DHT22;41790;50.940;4.560;2024-02-26T15:13:38;10.40;74.00
55870;DHT22;41790;50.940;4.560;2024-02-26T15:16:05;10.40;73.90
55870;DHT22;41790;50.940;4.560;2024-02-26T15:18:31;10.40;74.00
55870;DHT22;41790;50.940;4.560;2024-02-26T15:20:57;10.40;74.10
55870;DHT22;41790;50.940;4.560;2024-02-26T15:23:23;10.40;74.10
55870;DHT22;41790;50.940;4.560;2024-02-26T15:25:49;10.40;74.20
55870;DHT22;41790;50.940;4.560;2024-02-26T15:28:14;10.40;74.20
55870;DHT22;41790;50.940;4.560;2024-02-26T15:30:41;10.20;74.30
55870;DHT22;41790;50.940;4.560;2024-02-26T15:33:07;10.00;74.90
55870;DHT22;41790;50.940;4.560;2024-02-26T15:35:33;10.00;75.30
55870;DHT22;41790;50.940;4.560;2024-02-26T15:37:59;10.00;75.10